Warning: Javascript must be enabled to use all the features on this page!


Page Loading - Please Wait...

Click to hideNews Bulletins
Click to hide state-specific text

Explore Real-time Water Data Using New Products from USGS TXWSC

View over 750 USGS real-time stream, lake, reservoir, precipitation, and groundwater stations in context with current weather and hazard conditions on both desktop and mobile devices.

Click to go to the Texas Water Dashboard Click to go to the WATER On-the-go app

Follow @USGS_TexasFlood and @USGS_TexasRain on Twitter to get current water level and precipitation data during flooding or severe rainfall events.


USGS 08195000 Frio Rv at Concan, TX

PROVISIONAL DATA SUBJECT TO REVISION

Click to hidestation-specific text
Funding for this site is provided by the cooperators / programs below:
Click to go to the Edwards Aquifer Authority web page

Edwards Aquifer Authority

Click to go to the Cooperative Matching Funds web page

Cooperative Matching Funds

 

Rainfall Disclaimer


retransmission, forecasts and summary of this location by the National Weather Service
Retransmission, forecasts and summary by the National Weather Service

National Weather Service provided floatability levels for recreational users at several locations throughout Texas.

This station managed by the San Antonio Field Unit.

Available Parameters Available Period
All 6 Available Parameters for this site
  
00010 Temperature, water 2013-07-25  2017-12-17
00045 Precipitation 2017-08-19  2017-12-17
00060 Discharge 1991-10-01  2017-12-17
00065 Gage height 2007-10-01  2017-12-17
00095 Specific cond at 25C 2013-07-02  2017-12-17
99133 NO3+NO2,water,insitu 2015-09-24  2017-12-17

Graph
Graph w/ stats
Graph w/o stats
Graph w/ (up to 3) parms
Table
Tab-separated
Days  (2)
 

  -- or --
Begin date
 

End date
 

Summary of all available data for this site
Instantaneous-data availability statement






Date / Time




Gage
height,
feet,




Dis-
charge,
ft3/s,



Precip-
itation
total,
inches,
Specif-
ic
conduc-
tance,
wat unf
uS/cm @
25 degC,



Temper-
ature,
water,
deg C,

Nitrate
+
nitrite
water,
in situ
mg/L as,
12/15/2017 00:00 CST3.60P  44.8P  0.00P  475P  13.0P  0.26P  
12/15/2017 00:15 CST3.61P  46.5P  0.00P  475P  13.0P     
12/15/2017 00:30 CST3.61P  46.5P  0.00P  475P  13.0P     
12/15/2017 00:45 CST3.60P  44.8P  0.00P  476P  13.0P     
12/15/2017 01:00 CST3.62P  48.3P  0.00P  476P  13.0P  0.26P  
12/15/2017 01:15 CST3.60P  44.8P  0.00P  476P  12.9P     
12/15/2017 01:30 CST3.62P  48.3P  0.00P  476P  12.9P     
12/15/2017 01:45 CST3.61P  46.5P  0.00P  476P  12.9P     
12/15/2017 02:00 CST3.60P  44.8P  0.00P  476P  12.9P  0.26P  
12/15/2017 02:15 CST3.62P  48.3P  0.00P  476P  12.9P     
12/15/2017 02:30 CST3.61P  46.5P  0.00P  476P  12.9P     
12/15/2017 02:45 CST3.61P  46.5P  0.00P  476P  12.8P     
12/15/2017 03:00 CST3.61P  46.5P  0.00P  476P  12.8P  0.26P  
12/15/2017 03:15 CST3.62P  48.3P  0.00P  476P  12.8P     
12/15/2017 03:30 CST3.62P  48.3P  0.00P  476P  12.8P     
12/15/2017 03:45 CST3.62P  48.3P  0.00P  476P  12.7P     
12/15/2017 04:00 CST3.60P  44.8P  0.00P  476P  12.7P  0.27P  
12/15/2017 04:15 CST3.61P  46.5P  0.00P  477P  12.7P     
12/15/2017 04:30 CST3.62P  48.3P  0.00P  477P  12.6P     
12/15/2017 04:45 CST3.60P  44.8P  0.00P  477P  12.6P     
12/15/2017 05:00 CST3.61P  46.5P  0.00P  478P  12.6P  0.26P  
12/15/2017 05:15 CST3.62P  48.3P  0.00P  478P  12.6P     
12/15/2017 05:30 CST3.61P  46.5P  0.00P  478P  12.6P     
12/15/2017 05:45 CST3.60P  44.8P  0.00P  478P  12.5P     
12/15/2017 06:00 CST3.62P  48.3P  0.00P  478P  12.5P  0.26P  
12/15/2017 06:15 CST3.61P  46.5P  0.00P  478P  12.5P     
12/15/2017 06:30 CST3.61P  46.5P  0.00P  479P  12.5P     
12/15/2017 06:45 CST3.62P  48.3P  0.00P  478P  12.4P     
12/15/2017 07:00 CST3.62P  48.3P  0.00P  479P  12.4P  0.27P  
12/15/2017 07:15 CST3.61P  46.5P  0.00P  478P  12.4P     
12/15/2017 07:30 CST3.61P  46.5P  0.00P  479P  12.4P     
12/15/2017 07:45 CST3.61P  46.5P  0.00P  479P  12.3P     
12/15/2017 08:00 CST3.62P  48.3P  0.00P  479P  12.3P  0.27P  
12/15/2017 08:15 CST3.61P  46.5P  0.00P  479P  12.3P     
12/15/2017 08:30 CST3.61P  46.5P  0.00P  479P  12.2P     
12/15/2017 08:45 CST3.61P  46.5P  0.00P  479P  12.2P     
12/15/2017 09:00 CST3.62P  48.3P  0.00P  479P  12.2P  0.27P  
12/15/2017 09:15 CST3.61P  46.5P  0.00P  479P  12.2P     
12/15/2017 09:30 CST3.61P  46.5P  0.00P  479P  12.2P     
12/15/2017 09:45 CST3.62P  48.3P  0.00P  479P  12.2P     
12/15/2017 10:00 CST3.62P  48.3P  0.00P  479P  12.2P  0.27P  
12/15/2017 10:15 CST3.61P  46.5P  0.00P  479P  12.2P     
12/15/2017 10:30 CST3.62P  48.3P  0.00P  479P  12.2P     
12/15/2017 10:45 CST3.61P  46.5P  0.00P  479P  12.2P     
12/15/2017 11:00 CST3.62P  48.3P  0.00P  479P  12.2P  0.27P  
12/15/2017 11:15 CST3.62P  48.3P  0.00P  480P  12.3P     
12/15/2017 11:30 CST3.61P  46.5P  0.00P  480P  12.3P     
12/15/2017 11:45 CST3.62P  48.3P  0.00P  480P  12.3P     
12/15/2017 12:00 CST3.63P  50.0P  0.00P  480P  12.4P  0.27P  
12/15/2017 12:15 CST3.61P  46.5P  0.00P  480P  12.4P     
12/15/2017 12:30 CST3.63P  50.0P  0.00P  481P  12.4P     
12/15/2017 12:45 CST3.62P  48.3P  0.00P  481P  12.5P     
12/15/2017 13:00 CST      0.00P  481P  12.6P  0.27P  
12/15/2017 13:15 CST3.62P  48.3P  0.00P  481P  12.7P     
12/15/2017 13:30 CST3.62P  48.3P  0.00P  481P  12.7P     
12/15/2017 13:45 CST3.61P  46.5P  0.00P  481P  12.8P     
12/15/2017 14:00 CST3.61P  46.5P  0.00P  478P  13.1P  0.27P  
12/15/2017 14:15 CST3.62P  48.3P  0.00P  477P  13.2P     
12/15/2017 14:30 CST3.61P  46.5P  0.00P  477P  13.3P     
12/15/2017 14:45 CST3.63P  50.0P  0.00P  476P  13.3P     
12/15/2017 15:00 CST3.63P  50.0P  0.00P  476P  13.4P  0.26P  
12/15/2017 15:15 CST3.62P  48.3P  0.00P  476P  13.4P     
12/15/2017 15:30 CST3.62P  48.3P  0.00P  476P  13.4P     
12/15/2017 15:45 CST3.61P  46.5P  0.00P  477P  13.4P     
12/15/2017 16:00 CST3.61P  46.5P  0.00P  477P  13.5P  0.26P  
12/15/2017 16:15 CST3.62P  48.3P  0.00P  477P  13.5P     
12/15/2017 16:30 CST3.63P  50.0P  0.00P  476P  13.5P     
12/15/2017 16:45 CST3.62P  48.3P  0.00P  476P  13.5P     
12/15/2017 17:00 CST3.62P  48.3P  0.00P  476P  13.5P  0.26P  
12/15/2017 17:15 CST3.62P  48.3P  0.00P  475P  13.4P     
12/15/2017 17:30 CST3.62P  48.3P  0.00P  476P  13.4P     
12/15/2017 17:45 CST3.61P  46.5P  0.00P  479P  13.4P     
12/15/2017 18:00 CST3.61P  46.5P  0.00P  479P  13.4P  0.27P  
12/15/2017 18:15 CST3.62P  48.3P  0.00P  479P  13.4P     
12/15/2017 18:30 CST3.61P  46.5P  0.00P  480P  13.4P     
12/15/2017 18:45 CST3.62P  48.3P  0.00P  480P  13.3P     
12/15/2017 19:00 CST3.61P  46.5P  0.00P  481P  13.3P  0.27P  
12/15/2017 19:15 CST3.63P  50.0P  0.00P  479P  13.2P     
12/15/2017 19:30 CST3.61P  46.5P  0.00P  479P  13.2P     
12/15/2017 19:45 CST3.62P  48.3P  0.00P  478P  13.2P     
12/15/2017 20:00 CST3.62P  48.3P  0.00P  477P  13.2P  0.27P  
12/15/2017 20:15 CST3.63P  50.0P  0.00P  477P  13.1P     
12/15/2017 20:30 CST3.62P  48.3P  0.00P  477P  13.1P     
12/15/2017 20:45 CST3.63P  50.0P  0.00P  477P  13.1P     
12/15/2017 21:00 CST3.61P  46.5P  0.00P  477P  13.0P  0.27P  
12/15/2017 21:15 CST3.61P  46.5P  0.00P  477P  13.0P     
12/15/2017 21:30 CST3.62P  48.3P  0.00P  478P  13.0P     
12/15/2017 21:45 CST3.63P  50.0P  0.00P  478P  13.0P     
12/15/2017 22:00 CST3.63P  50.0P  0.00P  478P  12.9P  0.27P  
12/15/2017 22:15 CST3.63P  50.0P  0.00P  478P  12.9P     
12/15/2017 22:30 CST3.62P  48.3P  0.00P  478P  12.9P     
12/15/2017 22:45 CST3.61P  46.5P  0.00P  478P  12.8P     
12/15/2017 23:00 CST3.61P  46.5P  0.00P  478P  12.8P  0.26P  
12/15/2017 23:15 CST3.61P  46.5P  0.00P  478P  12.8P     
12/15/2017 23:30 CST3.62P  48.3P  0.00P  478P  12.8P     
12/15/2017 23:45 CST3.62P  48.3P  0.00P  478P  12.7P     
12/16/2017 00:00 CST3.60P  44.8P  0.00P  478P  12.7P  0.26P  
12/16/2017 00:15 CST3.62P  48.3P  0.00P  478P  12.7P     
12/16/2017 00:30 CST3.63P  50.0P  0.00P  478P  12.6P     
12/16/2017 00:45 CST3.62P  48.3P  0.00P  479P  12.6P     
12/16/2017 01:00 CST3.62P  48.3P  0.00P  479P  12.6P  0.26P  
12/16/2017 01:15 CST3.62P  48.3P  0.00P  479P  12.5P     
12/16/2017 01:30 CST3.60P  44.8P  0.00P  479P  12.5P     
12/16/2017 01:45 CST3.63P  50.0P  0.00P  479P  12.5P     
12/16/2017 02:00 CST3.61P  46.5P  0.00P  479P  12.4P  0.26P  
12/16/2017 02:15 CST3.61P  46.5P  0.00P  479P  12.4P     
12/16/2017 02:30 CST3.60P  44.8P  0.00P  480P  12.4P     
12/16/2017 02:45 CST3.62P  48.3P  0.00P  480P  12.4P     
12/16/2017 03:00 CST3.60P  44.8P  0.00P  480P  12.3P  0.26P  
12/16/2017 03:15 CST3.61P  46.5P  0.00P  480P  12.3P     
12/16/2017 03:30 CST3.60P  44.8P  0.00P  480P  12.3P     
12/16/2017 03:45 CST3.61P  46.5P  0.00P  480P  12.2P     
12/16/2017 04:00 CST3.63P  50.0P  0.00P  480P  12.2P  0.26P  
12/16/2017 04:15 CST3.63P  50.0P  0.00P  481P  12.2P     
12/16/2017 04:30 CST3.61P  46.5P  0.00P  480P  12.2P     
12/16/2017 04:45 CST3.62P  48.3P  0.00P  481P  12.2P     
12/16/2017 05:00 CST3.62P  48.3P  0.00P  481P  12.1P  0.26P  
12/16/2017 05:15 CST3.62P  48.3P  0.00P  481P  12.1P     
12/16/2017 05:30 CST3.61P  46.5P  0.00P  481P  12.1P     
12/16/2017 05:45 CST3.62P  48.3P  0.00P  481P  12.1P     
12/16/2017 06:00 CST3.62P  48.3P  0.00P  481P  12.0P  0.26P  
12/16/2017 06:15 CST3.62P  48.3P  0.00P  481P  12.0P     
12/16/2017 06:30 CST3.61P  46.5P  0.00P  481P  12.0P     
12/16/2017 06:45 CST3.61P  46.5P  0.00P  481P  12.0P     
12/16/2017 07:00 CST3.62P  48.3P  0.00P  481P  12.0P  0.26P  
12/16/2017 07:15 CST3.61P  46.5P  0.00P  481P  12.0P     
12/16/2017 07:30 CST3.62P  48.3P  0.00P  481P  11.9P     
12/16/2017 07:45 CST3.61P  46.5P  0.00P  482P  11.9P     
12/16/2017 08:00 CST3.62P  48.3P  0.00P  482P  11.9P  0.26P  
12/16/2017 08:15 CST3.61P  46.5P  0.00P  482P  11.9P     
12/16/2017 08:30 CST3.63P  50.0P  0.00P  481P  11.9P     
12/16/2017 08:45 CST3.63P  50.0P  0.00P  481P  11.9P     
12/16/2017 09:00 CST3.61P  46.5P  0.00P  481P  11.9P  0.26P  
12/16/2017 09:15 CST3.61P  46.5P  0.00P  482P  11.9P     
12/16/2017 09:30 CST3.61P  46.5P  0.00P  481P  11.9P     
12/16/2017 09:45 CST3.61P  46.5P  0.00P  482P  11.9P     
12/16/2017 10:00 CST3.61P  46.5P  0.00P  482P  11.9P  0.26P  
12/16/2017 10:15 CST3.61P  46.5P  0.00P  480P  11.9P     
12/16/2017 10:30 CST3.62P  48.3P  0.00P  480P  11.9P     
12/16/2017 10:45 CST3.62P  48.3P  0.00P  479P  11.9P     
12/16/2017 11:00 CST3.61P  46.5P  0.00P  479P  11.9P  0.27P  
12/16/2017 11:15 CST3.62P  48.3P  0.00P  479P  11.9P     
12/16/2017 11:30 CST3.60P  44.8P  0.00P  479P  11.9P     
12/16/2017 11:45 CST3.60P  44.8P  0.00P  479P  11.9P     
12/16/2017 12:00 CST3.63P  50.0P  0.00P  479P  11.9P  0.27P  
12/16/2017 12:15 CST3.62P  48.3P  0.00P  479P  11.9P     
12/16/2017 12:30 CST3.62P  48.3P  0.00P  479P  12.0P     
12/16/2017 12:45 CST      0.00P  479P  12.0P     
12/16/2017 13:00 CST3.62P  48.3P  0.00P  479P  12.0P  0.27P  
12/16/2017 13:15 CST3.62P  48.3P  0.00P  478P  12.0P     
12/16/2017 13:30 CST3.63P  50.0P  0.00P  478P  12.0P     
12/16/2017 13:45 CST3.60P  44.8P  0.00P  479P  12.0P     
12/16/2017 14:00 CST3.62P  48.3P  0.00P  479P  12.0P  0.26P  
12/16/2017 14:15 CST3.62P  48.3P  0.00P  479P  12.0P     
12/16/2017 14:30 CST3.61P  46.5P  0.00P  478P  12.0P     
12/16/2017 14:45 CST3.62P  48.3P  0.00P  479P  12.0P     
12/16/2017 15:00 CST3.62P  48.3P  0.00P  479P  12.0P  0.27P  
12/16/2017 15:15 CST3.62P  48.3P  0.00P  478P  12.0P     
12/16/2017 15:30 CST3.62P  48.3P  0.00P  478P  12.0P     
12/16/2017 15:45 CST3.63P  50.0P  0.00P  478P  12.0P     
12/16/2017 16:00 CST3.62P  48.3P  0.00P  478P  12.0P  0.26P  
12/16/2017 16:15 CST3.62P  48.3P  0.00P  478P  12.0P     
12/16/2017 16:30 CST3.62P  48.3P  0.00P  478P  12.0P     
12/16/2017 16:45 CST3.63P  50.0P  0.01P  478P  12.0P     
12/16/2017 17:00 CST3.63P  50.0P  0.00P  478P  12.0P  0.26P  
12/16/2017 17:15 CST3.63P  50.0P  0.00P  478P  12.0P     
12/16/2017 17:30 CST3.62P  48.3P  0.00P  478P  12.0P     
12/16/2017 17:45 CST3.63P  50.0P  0.00P  477P  12.0P     
12/16/2017 18:00 CST3.63P  50.0P  0.00P  477P  12.0P  0.26P  
12/16/2017 18:15 CST3.62P  48.3P  0.01P  478P  12.0P     
12/16/2017 18:30 CST3.63P  50.0P  0.00P  478P  12.0P     
12/16/2017 18:45 CST3.63P  50.0P  0.00P  478P  12.0P     
12/16/2017 19:00 CST3.62P  48.3P  0.00P  478P  12.0P  0.26P  
12/16/2017 19:15 CST3.61P  46.5P  0.00P  478P  12.0P     
12/16/2017 19:30 CST3.61P  46.5P  0.00P  479P  12.0P     
12/16/2017 19:45 CST3.61P  46.5P  0.00P  479P  12.0P     
12/16/2017 20:00 CST3.62P  48.3P  0.00P  480P  12.0P  0.26P  
12/16/2017 20:15 CST3.62P  48.3P  0.00P  480P  12.0P     
12/16/2017 20:30 CST3.63P  50.0P  0.00P  480P  12.0P     
12/16/2017 20:45 CST3.62P  48.3P  0.00P  481P  12.0P     
12/16/2017 21:00 CST3.61P  46.5P  0.00P  481P  12.0P  0.26P  
12/16/2017 21:15 CST3.61P  46.5P  0.00P  481P  12.0P     
12/16/2017 21:30 CST3.61P  46.5P  0.00P  481P  12.0P     
12/16/2017 21:45 CST3.62P  48.3P  0.00P  481P  12.0P     
12/16/2017 22:00 CST3.63P  50.0P  0.00P  481P  12.1P  0.26P  
12/16/2017 22:15 CST3.63P  50.0P  0.00P  482P  12.1P     
12/16/2017 22:30 CST3.61P  46.5P  0.00P  482P  12.1P     
12/16/2017 22:45 CST3.61P  46.5P  0.00P  482P  12.1P     
12/16/2017 23:00 CST3.63P  50.0P  0.00P  481P  12.1P  0.26P  
12/16/2017 23:15 CST3.62P  48.3P  0.01P  481P  12.1P     
12/16/2017 23:30 CST3.62P  48.3P  0.00P  481P  12.1P     
12/16/2017 23:45 CST3.62P  48.3P  0.00P  481P  12.1P     
12/17/2017 00:00 CST3.61P  46.5P  0.00P  481P  12.0P  0.26P  
12/17/2017 00:15 CST3.63P  50.0P  0.00P  481P  12.0P     
12/17/2017 00:30 CST3.62P  48.3P  0.00P  480P  12.1P     
12/17/2017 00:45 CST3.62P  48.3P  0.00P  481P  12.1P     
12/17/2017 01:00 CST3.62P  48.3P  0.00P  481P  12.0P  0.26P  
12/17/2017 01:15 CST3.63P  50.0P  0.00P  481P  12.1P     
12/17/2017 01:30 CST3.63P  50.0P  0.00P  481P  12.1P     
12/17/2017 01:45 CST3.63P  50.0P  0.00P  481P  12.1P     
12/17/2017 02:00 CST3.62P  48.3P  0.00P  481P  12.1P  0.26P  
12/17/2017 02:15 CST3.63P  50.0P  0.00P  481P  12.1P     
12/17/2017 02:30 CST3.63P  50.0P  0.00P  481P  12.1P     
12/17/2017 02:45 CST3.61P  46.5P  0.00P  481P  12.1P     
12/17/2017 03:00 CST3.63P  50.0P  0.00P  481P  12.1P  0.26P  
12/17/2017 03:15 CST3.62P  48.3P  0.00P  481P  12.1P     
12/17/2017 03:30 CST3.62P  48.3P  0.00P  481P  12.1P     
12/17/2017 03:45 CST3.61P  46.5P  0.00P  481P  12.1P     
12/17/2017 04:00 CST3.63P  50.0P  0.00P  481P  12.1P  0.26P  
12/17/2017 04:15 CST3.63P  50.0P  0.00P  481P  12.1P     
12/17/2017 04:30 CST3.63P  50.0P  0.00P  481P  12.1P     
12/17/2017 04:45 CST3.62P  48.3P  0.00P  482P  12.1P     
12/17/2017 05:00 CST3.63P  50.0P  0.00P  481P  12.1P  0.26P  
12/17/2017 05:15 CST3.61P  46.5P  0.00P  481P  12.1P     
12/17/2017 05:30 CST3.63P  50.0P  0.00P  481P  12.1P     
12/17/2017 05:45 CST3.63P  50.0P  0.00P  482P  12.1P     
12/17/2017 06:00 CST3.62P  48.3P  0.00P  482P  12.1P  0.27P  
12/17/2017 06:15 CST3.61P  46.5P  0.00P  482P  12.1P     
12/17/2017 06:30 CST3.63P  50.0P  0.00P  482P  12.1P     
12/17/2017 06:45 CST3.62P  48.3P  0.00P  482P  12.1P     
12/17/2017 07:00 CST3.63P  50.0P  0.00P  482P  12.1P  0.27P  
12/17/2017 07:15 CST3.63P  50.0P  0.00P  482P  12.1P     
12/17/2017 07:30 CST3.62P  48.3P  0.00P  482P  12.1P     
12/17/2017 07:45 CST3.63P  50.0P  0.00P  482P  12.1P     
12/17/2017 08:00 CST3.62P  48.3P  0.00P  482P  12.1P  0.27P  
12/17/2017 08:15 CST3.63P  50.0P  0.00P  482P  12.1P     
12/17/2017 08:30 CST3.61P  46.5P  0.00P  482P  12.1P     
12/17/2017 08:45 CST3.61P  46.5P  0.00P  482P  12.1P     
12/17/2017 09:00 CST3.64P  51.9P  0.00P  482P  12.1P  0.27P  
12/17/2017 09:15 CST3.63P  50.0P  0.00P  481P  12.1P     
12/17/2017 09:30 CST3.63P  50.0P  0.00P  481P  12.1P     
12/17/2017 09:45 CST3.63P  50.0P  0.00P  481P  12.1P     
12/17/2017 10:00 CST3.62P  48.3P  0.00P  481P  12.1P  0.27P  
12/17/2017 10:15 CST3.63P  50.0P  0.00P  481P  12.1P     
12/17/2017 10:30 CST3.63P  50.0P  0.00P  481P  12.1P     
12/17/2017 10:45 CST3.62P  48.3P  0.00P  481P  12.1P     
12/17/2017 11:00 CST3.62P  48.3P  0.00P  481P  12.2P  0.27P  
12/17/2017 11:15 CST3.63P  50.0P  0.00P  480P  12.2P     
12/17/2017 11:30 CST3.63P  50.0P  0.00P  479P  12.2P     
12/17/2017 11:45 CST3.63P  50.0P  0.00P  479P  12.2P     
12/17/2017 12:00 CST3.63P  50.0P  0.00P  479P  12.3P  0.27P  
12/17/2017 12:15 CST3.62P  48.3P  0.00P  479P  12.3P     
12/17/2017 12:30 CST3.61P  46.5P  0.00P  480P  12.3P     
12/17/2017 12:45 CST      0.00P  479P  12.4P     
12/17/2017 13:00 CST3.63P  50.0P  0.00P  479P  12.4P  0.27P  
12/17/2017 13:15 CST3.62P  48.3P  0.00P  479P  12.4P     
12/17/2017 13:30 CST3.62P  48.3P  0.00P  479P  12.5P     
12/17/2017 13:45 CST3.63P  50.0P  0.00P  479P  12.6P     
12/17/2017 14:00 CST3.63P  50.0P  0.00P  480P  12.7P  0.27P  
12/17/2017 14:15 CST3.63P  50.0P  0.00P  480P  12.8P     
12/17/2017 14:30 CST3.63P  50.0P  0.00P  480P  12.9P     
12/17/2017 14:45 CST3.63P  50.0P  0.00P  479P  13.1P     
12/17/2017 15:00 CST3.63P  50.0P  0.00P  479P  13.1P  0.27P  
12/17/2017 15:15 CST3.62P  48.3P  0.00P  477P  13.2P     
12/17/2017 15:30 CST3.63P  50.0P  0.00P  477P  13.2P     
12/17/2017 15:45 CST3.63P  50.0P  0.00P  478P  13.2P     
12/17/2017 16:00 CST3.63P  50.0P  0.00P  477P  13.3P  0.26P  
12/17/2017 16:15 CST3.63P  50.0P  0.00P  477P  13.3P     
12/17/2017 16:30 CST3.63P  50.0P  0.00P  477P  13.3P     
12/17/2017 16:45 CST3.63P  50.0P  0.00P  477P  13.4P     
12/17/2017 17:00 CST3.62P  48.3P  0.00P  477P  13.4P  0.26P  
12/17/2017 17:15 CST3.63P  50.0P  0.00P  477P  13.4P     
12/17/2017 17:30 CST3.63P  50.0P  0.00P  477P  13.4P     
12/17/2017 17:45 CST3.63P  50.0P  0.00P  477P  13.4P     
12/17/2017 18:00 CST3.63P  50.0P  0.00P  477P  13.4P  0.26P  
12/17/2017 18:15 CST3.63P  50.0P  0.00P  477P  13.4P     
12/17/2017 18:30 CST3.63P  50.0P  0.00P  477P  13.4P     
12/17/2017 18:45 CST3.62P  48.3P  0.00P  477P  13.4P     
12/17/2017 19:00 CST3.63P  50.0P  0.00P  477P  13.3P  0.27P  
12/17/2017 19:15 CST3.64P  51.9P  0.00P  477P  13.3P     
12/17/2017 19:30 CST3.62P  48.3P  0.00P  477P  13.3P     

Explanation
  P  Provisional data subject to revision.